Portada
METAR-TAF:

METAR-TAF

Aeroports :

Illizi, Algèria

latitud: 26-30N, longitud: 008-25E, altitud: 558 m

Observació

L'informe es va fer fa 1 hora i 4 minuts, a les 18:00 UTC
Vent 5 kt del Est/Nord-Est
Temperatura 33°C
Humitat 9%
Pressió 1011 hPa
Visibilitat 10 km o més
sense núvols per sota de 1500 mi sense presència de cumulonimbus.

METAR: DAAP 181800Z 07005KT CAVOK 33/M04 Q1011

Hora: 20:04 (19:04 UTC)

Pronòstic

L'informe es va fer fa 2 hores i 4 minuts, a les 17:00 UTC
Pronòstic vàlid del 18 a les 18 UTC al 19 a les 03 UTC
Vent 6 kt del Est
Visibilitat 10 km o més
sense núvols per sota de 1500 mi sense presència de cumulonimbus.

TAF: DAAP 181700Z 1818/1903 08006KT CAVOK

Observacions i pronòstics meteorològics de més de 4000 aeroports (METAR i TAF).

Les estacions disponibles són els punts grocs i vermells al mapa.

Posi el ratolí al punt desitjat per veure el nom de l'estació.

Feu clic per veure les observacions i els pronòstics meteorològics.

Per canviar el mapa: feu clic els botons verds amb una creu de color negre per apropar; al botó verd amb un guió per allunyar la imatge; o en les fletxes verdes per a mapes adjacents.


METAR-TAF: